Latest Coastal Weather Observations for Gunn Point

IDD60701

Issued at 10:11 am CST Tuesday 17 January 2017 (issued every 10 minutes, with the page automatically refreshed every 10 minutes)

About coastal observations | Map of coastal stations | Coastal observations for NT | Marine services | Other Formats
Station Details ID: 014023 Name: GUNN POINT Lat: -12.25 Lon: 131.04 Height: 25.0 m
Data from the previous 72 hours. | See also: Recent months for locations in Northern Territory
Date/Time
CST
Temp
°C
Wind Pressure Rain since
9am
mm
Weather Cloud Vis
km
Sea
Height
m
Swell
Dir  Spd
kts
Gust
kts
hPa Trend Height
m
Period
s
Dir
17/10:00am 30.1 NW 2 5 1009.5 - 0.0 - - - - - - -
17/09:30am 30.0 NNW 2 5 1009.3 - 0.0 - - - - - - -
17/09:00am 29.1 CALM 0 2 1009.3 - 0.0 - - - - - - -
17/08:30am 27.9 CALM 0 0 1009.2 - 0.0 - - - - - - -
17/08:00am 26.5 CALM 0 0 1009.2 - 0.0 - - - - - - -
17/07:30am 25.2 CALM 0 0 1008.9 - 0.0 - - - - - - -
17/07:00am 24.3 CALM 0 0 1008.4 - 0.0 - - - - - - -
17/06:30am 24.4 CALM 0 0 1007.7 - 0.0 - - - - - - -
17/06:00am 24.6 SSE 3 4 1007.5 - 0.0 - - - - - - -
17/05:30am 24.4 CALM 0 0 1007.1 - 0.0 - - - - - - -
17/05:00am 24.4 CALM 0 0 1006.7 - 0.0 - - - - - - -
17/04:30am 24.7 CALM 0 0 1006.6 - 0.0 - - - - - - -
17/04:00am 25.1 CALM 0 0 1006.5 - 0.0 - - - - - - -
17/03:30am 25.2 CALM 0 0 1006.6 - 0.0 - - - - - - -
17/03:00am 25.3 CALM 0 0 1006.7 - 0.0 - - - - - - -
17/02:30am 25.4 CALM 0 0 1006.8 - 0.0 - - - - - - -
17/02:00am 25.4 NE 2 4 1007.1 - 0.0 - - - - - - -
17/01:30am 25.3 NNE 2 5 1007.7 - 0.0 - - - - - - -
17/01:00am 25.5 CALM 0 0 1007.8 - 0.0 - - - - - - -
17/12:30am 25.6 CALM 0 0 1008.1 - 0.0 - - - - - - -
17/12:00am 25.7 NE 1 3 1008.2 - 0.0 - - - - - - -
 
Date/Time
CST
Temp
°C
Wind Pressure Rain since
9am
mm
Weather Cloud Vis
km
Sea
Height
m
Swell
Dir  Spd
kts
Gust
kts
hPa Trend Height
m
Period
s
Dir
16/11:30pm 25.8 CALM 0 0 1008.5 - 0.0 - - - - - - -
16/11:00pm 26.1 CALM 0 0 1008.4 - 0.0 - - - - - - -
16/10:30pm 26.2 CALM 0 0 1008.1 - 0.0 - - - - - - -
16/10:00pm 26.2 S 3 5 1007.7 - 0.0 - - - - - - -
16/09:30pm 26.4 SE 2 4 1007.5 - 0.0 - - - - - - -
16/09:00pm 26.5 SSE 2 3 1007.6 - 0.0 - - - - - - -
16/08:30pm 26.4 CALM 0 0 1007.2 - 0.0 - - - - - - -
16/08:00pm 26.4 CALM 0 0 1006.9 - 0.0 - - - - - - -
16/07:30pm 26.8 CALM 0 0 1006.9 - 0.0 - - - - - - -
16/07:00pm 26.9 S 1 3 1006.8 - 0.0 - - - - - - -
16/06:30pm 27.3 S 1 2 1006.6 - 0.0 - - - - - - -
16/06:00pm 27.4 S 3 5 1006.5 - 0.0 - - - - - - -
16/05:30pm 29.0 SSW 3 6 1006.6 - 0.0 - - - - - - -
16/05:00pm 29.2 WSW 8 13 1006.4 - 0.0 - - - - - - -
16/04:30pm 30.2 WSW 5 11 1006.1 - 0.0 - - - - - - -
16/04:00pm 30.2 W 6 11 1006.1 - 0.0 - - - - - - -
16/03:30pm 30.8 W 7 13 1006.1 - 0.0 - - - - - - -
16/03:00pm 30.6 W 8 14 1006.2 - 0.0 - - - - - - -
16/02:30pm 31.6 W 8 14 1006.3 - 0.0 - - - - - - -
16/02:00pm 31.8 W 7 13 1006.8 - 0.0 - - - - - - -
16/01:30pm 31.4 W 6 12 1007.2 - 0.0 - - - - - - -
16/01:00pm 31.8 W 7 16 1007.6 - 0.0 - - - - - - -
16/12:30pm 31.8 W 6 11 1007.9 - 0.0 - - - - - - -
16/12:00pm 31.7 W 5 9 1008.4 - 0.0 - - - - - - -
16/11:30am 31.2 W 5 11 1008.9 - 0.0 - - - - - - -
16/11:00am 30.5 W 6 10 1009.0 - 0.0 - - - - - - -
16/10:30am 30.5 W 4 9 1009.1 - 0.0 - - - - - - -
16/10:00am 30.6 W 6 9 1009.0 - 0.0 - - - - - - -
16/09:30am 30.3 W 4 9 1008.7 - 0.0 - - - - - - -
16/09:00am 30.0 W 4 9 1008.6 - 0.0 - - - - - - -
16/08:30am 29.6 W 3 6 1008.4 - 0.0 - - - - - - -
16/08:00am 29.1 W 4 8 1008.1 - 0.0 - - - - - - -
16/07:30am 28.6 W 4 8 1008.0 - 0.0 - - - - - - -
16/07:00am 28.2 WNW 3 7 1007.6 - 0.0 - - - - - - -
16/06:30am 28.1 W 3 5 1007.3 - 0.0 - - - - - - -
16/06:00am 28.0 W 3 5 1006.7 - 0.0 - - - - - - -
16/05:30am 27.9 W 2 4 1006.4 - 0.0 - - - - - - -
16/05:00am 27.9 W 2 5 1006.1 - 0.0 - - - - - - -
16/04:30am 27.9 W 1 3 1006.3 - 0.0 - - - - - - -
16/04:00am 28.1 W 3 6 1006.4 - 0.0 - - - - - - -
16/03:30am 28.2 W 3 6 1006.4 - 0.0 - - - - - - -
16/03:00am 28.1 W 3 6 1006.5 - 0.0 - - - - - - -
16/02:30am 28.2 W 3 7 1006.4 - 0.0 - - - - - - -
16/02:00am 28.1 W 1 5 1006.5 - 0.0 - - - - - - -
16/01:30am 28.4 W 3 6 1006.8 - 0.0 - - - - - - -
16/01:00am 28.5 W 3 7 1007.1 - 0.0 - - - - - - -
16/12:30am 28.4 WNW 3 5 1007.4 - 0.0 - - - - - - -
16/12:00am 28.2 W 2 5 1007.5 - 0.0 - - - - - - -
 
Date/Time
CST
Temp
°C
Wind Pressure Rain since
9am
mm
Weather Cloud Vis
km
Sea
Height
m
Swell
Dir  Spd
kts
Gust
kts
hPa Trend Height
m
Period
s
Dir
15/11:30pm 28.5 W 3 7 1007.9 - 0.0 - - - - - - -
15/11:00pm 28.6 W 3 6 1008.3 - 0.0 - - - - - - -
15/10:30pm 28.5 W 2 5 1008.3 - 0.0 - - - - - - -
15/10:00pm 28.6 W 3 6 1008.0 - 0.0 - - - - - - -
15/09:30pm 28.7 W 4 8 1007.7 - 0.0 - - - - - - -
15/09:00pm 28.7 W 3 7 1007.5 - 0.0 - - - - - - -
15/08:30pm 28.7 W 3 6 1007.3 - 0.0 - - - - - - -
15/08:00pm 28.6 W 2 4 1007.3 - 0.0 - - - - - - -
15/07:30pm 28.8 W 2 4 1007.2 - 0.0 - - - - - - -
15/07:00pm 29.3 W 3 5 1007.0 - 0.0 - - - - - - -
15/06:30pm 29.7 W 3 5 1007.0 - 0.0 - - - - - - -
15/06:00pm 30.0 W 2 5 1006.7 - 0.0 - - - - - - -
15/05:30pm 30.5 WSW 4 6 1006.7 - 0.0 - - - - - - -
15/05:00pm 31.3 W 5 9 1006.3 - 0.0 - - - - - - -
15/04:30pm 30.2 W 4 7 1006.1 - 0.0 - - - - - - -
15/04:00pm 30.3 WNW 5 8 1006.3 - 0.0 - - - - - - -
15/03:30pm 30.6 WNW 4 8 1006.5 - 0.0 - - - - - - -
15/03:00pm 30.7 W 5 9 1007.1 - 0.0 - - - - - - -
15/02:30pm 31.4 WNW 5 9 1007.5 - 0.0 - - - - - - -
15/02:00pm 32.2 W 5 12 1007.9 - 0.0 - - - - - - -
15/01:30pm 31.8 WNW 6 11 1008.4 - 0.0 - - - - - - -
15/01:00pm 31.8 W 6 10 1008.7 - 0.0 - - - - - - -
15/12:30pm 31.5 W 6 10 1008.7 - 0.0 - - - - - - -
15/12:00pm 31.2 W 5 9 1008.9 - 0.0 - - - - - - -
15/11:30am 31.0 W 5 9 1009.2 - 0.0 - - - - - - -
15/11:00am 31.4 WNW 5 9 1009.3 - 0.0 - - - - - - -
15/10:30am 30.4 W 3 6 1009.7 - 0.0 - - - - - - -
15/10:00am 30.4 NW 3 8 1009.9 - 0.0 - - - - - - -
15/09:30am 30.0 WNW 3 6 1010.1 - 0.0 - - - - - - -
15/09:00am 29.5 WNW 2 4 1010.1 - 0.0 - - - - - - -
15/08:30am 29.4 WNW 3 5 1010.0 - 0.0 - - - - - - -
15/08:00am 28.6 CALM 0 0 1009.8 - 0.0 - - - - - - -
15/07:30am 26.4 CALM 0 0 1009.6 - 0.0 - - - - - - -
15/07:00am 25.9 CALM 0 0 1009.5 - 0.0 - - - - - - -
15/06:30am 26.5 NNW 1 4 1009.1 - 0.0 - - - - - - -
15/06:00am 27.3 NW 1 4 1008.7 - 0.0 - - - - - - -
15/05:30am 27.9 NW 2 5 1008.2 - 0.0 - - - - - - -
15/05:00am 27.9 WNW 2 4 1007.9 - 0.0 - - - - - - -
15/04:30am 27.4 NW 1 4 1007.8 - 0.0 - - - - - - -
15/04:00am 27.8 WNW 2 4 1007.7 - 0.0 - - - - - - -
15/03:30am 27.5 WNW 2 6 1007.5 - 0.0 - - - - - - -
15/03:00am 26.8 NW 1 5 1007.5 - 0.0 - - - - - - -
15/02:30am 26.7 NNW 2 3 1007.8 - 0.0 - - - - - - -
15/02:00am 26.4 NNW 1 3 1007.7 - 0.0 - - - - - - -
15/01:30am 27.1 CALM 0 1 1008.4 - 0.0 - - - - - - -
15/01:00am 26.9 NNW 1 4 1008.6 - 0.0 - - - - - - -
15/12:30am 26.4 NNW 1 4 1008.9 - 0.0 - - - - - - -
15/12:00am 26.3 NNW 1 2 1009.4 - 0.0 - - - - - - -
 
Date/Time
CST
Temp
°C
Wind Pressure Rain since
9am
mm
Weather Cloud Vis
km
Sea
Height
m
Swell
Dir  Spd
kts
Gust
kts
hPa Trend Height
m
Period
s
Dir
14/11:30pm 26.3 CALM 0 0 1009.6 - 0.0 - - - - - - -
14/11:00pm 26.7 CALM 0 0 1009.7 - 0.0 - - - - - - -
14/10:30pm 27.2 CALM 0 0 1009.7 - 0.0 - - - - - - -
14/10:00pm 26.8 CALM 0 0 1009.5 - 0.0 - - - - - - -
14/09:30pm 26.9 CALM 0 1 1008.9 - 0.0 - - - - - - -
14/09:00pm 27.4 CALM 0 2 1008.5 - 0.0 - - - - - - -
14/08:30pm 27.9 N 1 2 1008.2 - 0.0 - - - - - - -
14/08:00pm 28.6 NNW 1 4 1008.0 - 0.0 - - - - - - -
14/07:30pm 28.7 WNW 3 7 1007.6 - 0.0 - - - - - - -
14/07:00pm 29.1 NW 4 8 1007.0 - 0.0 - - - - - - -
14/06:30pm 29.8 NW 5 9 1007.0 - 0.0 - - - - - - -
14/06:00pm 30.8 WNW 6 10 1006.8 - 0.0 - - - - - - -
14/05:30pm 30.8 WNW 6 9 1006.5 - 0.0 - - - - - - -
14/05:00pm 31.5 WSW 5 8 1006.1 - 0.0 - - - - - - -
14/04:30pm 31.7 W 6 11 1006.3 - 0.0 - - - - - - -
14/04:00pm 31.3 W 5 10 1006.0 - 0.0 - - - - - - -
14/03:30pm 31.2 W 5 9 1006.3 - 0.0 - - - - - - -
14/03:00pm 31.0 WNW 4 8 1006.9 - 0.0 - - - - - - -
14/02:30pm 31.5 WNW 6 11 1007.0 - 0.0 - - - - - - -
14/02:00pm 32.1 WNW 6 11 1007.5 - 0.0 - - - - - - -
14/01:30pm 31.8 WNW 7 12 1007.8 - 0.0 - - - - - - -
14/01:00pm 31.9 WNW 5 9 1007.9 - 0.0 - - - - - - -
14/12:30pm 31.5 W 6 9 1008.2 - 0.0 - - - - - - -
14/12:00pm 32.2 W 5 9 1008.3 - 0.0 - - - - - - -
14/11:30am 31.7 WNW 4 8 1008.5 - 0.0 - - - - - - -
14/11:00am 31.2 W 5 9 1008.6 - 0.0 - - - - - - -
14/10:30am 31.4 W 4 8 1008.7 - 0.0 - - - - - - -

Other Formats:

Comma delimited format used in spreadsheet applications
http://www.bom.gov.au/fwo/IDD60701/IDD60701.99501.axf

JavaScript Object Notation format (JSON) in row-major order
http://www.bom.gov.au/fwo/IDD60701/IDD60701.99501.json